Time;durP1;ratioP1;P1;durP2;ratioP2;P2;SDS_P1;SDS_P2;PMS_P1;PMS_P2;Temp;Humidity;BMP_temperature;BMP_pressure;BME280_temperature;BME280_humidity;BME280_pressure;Samples;Min_cycle;Max_cycle;Signal;HPM_P1;HPM_P2
2022/01/28 00:01:55;;;;;;;8.43;1.93;;;7.70;99.90;;;;;;4961276;28;20568;-86
2022/01/28 00:04:26;;;;;;;6.57;2.13;;;7.60;99.90;;;;;;4977351;28;20519;-84
2022/01/28 00:06:56;;;;;;;6.90;2.27;;;8.00;99.90;;;;;;4973996;28;20486;-82
2022/01/28 00:09:32;;;;;;;7.00;2.50;;;8.00;99.90;;;;;;4963824;28;21111;-85
2022/01/28 00:12:16;;;;;;;6.70;3.10;;;7.50;99.90;;;;;;4950754;28;20575;-85
2022/01/28 00:14:54;;;;;;;9.17;2.47;;;8.10;99.90;;;;;;4978263;28;20497;-86
2022/01/28 00:38:14;;;;;;;10.50;2.00;;;7.70;99.90;;;;;;4996173;28;20882;-84
2022/01/28 00:40:46;;;;;;;9.87;2.07;;;7.70;99.90;;;;;;4991763;28;20485;-85
2022/01/28 00:43:22;;;;;;;7.43;3.27;;;8.20;99.90;;;;;;4993827;28;20547;-84
2022/01/28 00:45:53;;;;;;;8.53;2.70;;;7.70;99.90;;;;;;4993974;28;21032;-85
2022/01/28 00:48:27;;;;;;;6.43;2.23;;;7.70;99.90;;;;;;4998694;28;20461;-84
2022/01/28 00:50:59;;;;;;;12.57;3.13;;;7.90;99.90;;;;;;5000747;28;20467;-84
2022/01/28 00:53:32;;;;;;;5.70;2.10;;;7.70;99.90;;;;;;5004624;28;20528;-84
2022/01/28 00:56:06;;;;;;;4.37;1.90;;;8.10;99.90;;;;;;5003401;28;21025;-84
2022/01/28 00:58:39;;;;;;;7.10;1.87;;;7.50;99.90;;;;;;5000584;28;20572;-86
2022/01/28 01:01:06;;;;;;;3.57;1.63;;;8.00;99.90;;;;;;5001853;28;20699;-85
2022/01/28 01:04:10;;;;;;;9.20;2.03;;;7.60;99.90;;;;;;4998797;28;20491;-85
2022/01/28 01:06:42;;;;;;;8.57;3.00;;;7.60;99.90;;;;;;5000080;28;20483;-86
2022/01/28 01:09:18;;;;;;;7.93;2.83;;;7.60;99.90;;;;;;4997031;28;20793;-84
2022/01/28 01:12:19;;;;;;;4.10;2.23;;;8.10;99.90;;;;;;5000105;28;20460;-85
2022/01/28 01:15:04;;;;;;;12.13;2.37;;;7.60;99.90;;;;;;4987619;28;20470;-85
2022/01/28 01:17:39;;;;;;;10.57;2.30;;;8.00;99.90;;;;;;4998557;28;20494;-84
2022/01/28 01:26:43;;;;;;;8.10;2.20;;;7.50;99.90;;;;;;5071678;23;21025;-83
2022/01/28 01:29:13;;;;;;;7.83;2.47;;;7.50;99.90;;;;;;4977720;28;20467;-83
2022/01/28 01:31:42;;;;;;;6.87;2.10;;;7.40;99.90;;;;;;4980824;28;20481;-83
2022/01/28 01:34:17;;;;;;;4.30;1.77;;;7.40;99.90;;;;;;4991208;28;20891;-82
2022/01/28 01:36:44;;;;;;;8.60;2.27;;;7.30;99.90;;;;;;4982110;28;20973;-82
2022/01/28 01:39:16;;;;;;;17.00;2.70;;;7.30;99.90;;;;;;4983246;28;20465;-84
2022/01/28 01:41:49;;;;;;;6.20;2.47;;;7.30;99.90;;;;;;4973204;28;20484;-84
2022/01/28 01:52:51;;;;;;;5.43;2.00;;;7.20;99.90;;;;;;4982113;28;20467;-85
2022/01/28 01:55:18;;;;;;;10.47;2.30;;;7.10;99.90;;;;;;4988920;28;20462;-85
2022/01/28 01:57:45;;;;;;;7.70;2.00;;;7.10;99.90;;;;;;4987623;28;20468;-84
2022/01/28 02:00:15;;;;;;;5.30;1.93;;;7.10;99.90;;;;;;4988849;28;20480;-85
2022/01/28 02:02:42;;;;;;;12.37;2.97;;;7.10;99.90;;;;;;4986910;28;20483;-85
2022/01/28 02:05:09;;;;;;;7.73;2.10;;;7.10;99.90;;;;;;4990047;28;20456;-86
2022/01/28 02:07:38;;;;;;;5.87;2.37;;;7.00;99.90;;;;;;4990201;28;21162;-85
2022/01/28 02:10:06;;;;;;;5.27;2.13;;;7.00;99.90;;;;;;4996071;28;20564;-83
2022/01/28 02:12:52;;;;;;;8.30;2.20;;;7.00;99.90;;;;;;4994797;28;20456;-84
2022/01/28 02:15:20;;;;;;;10.47;2.20;;;7.00;99.90;;;;;;4978720;28;20562;-83
2022/01/28 02:17:47;;;;;;;6.70;1.70;;;7.00;99.90;;;;;;4966879;28;20488;-85
2022/01/28 02:20:36;;;;;;;8.87;2.27;;;7.00;99.90;;;;;;4964585;28;20488;-83
2022/01/28 02:23:04;;;;;;;7.20;2.10;;;6.90;99.90;;;;;;4967619;28;21056;-82
2022/01/28 02:25:33;;;;;;;6.00;2.70;;;6.90;99.90;;;;;;4965436;28;20469;-82
2022/01/28 02:28:03;;;;;;;14.77;2.20;;;6.90;99.90;;;;;;4974304;28;20488;-86
2022/01/28 02:30:30;;;;;;;4.37;1.83;;;6.90;99.90;;;;;;4980170;28;20468;-83
2022/01/28 02:33:00;;;;;;;7.97;3.10;;;6.90;99.90;;;;;;4981151;28;20475;-84
2022/01/28 02:35:28;;;;;;;6.73;1.83;;;6.90;99.90;;;;;;4988787;28;20460;-85
2022/01/28 02:37:55;;;;;;;10.30;2.47;;;6.90;99.90;;;;;;4989616;28;20533;-85
2022/01/28 02:40:22;;;;;;;8.70;2.47;;;6.80;99.90;;;;;;4981807;28;20488;-84
2022/01/28 02:45:31;;;;;;;9.90;2.53;;;6.80;99.90;;;;;;4983541;28;20453;-84
2022/01/28 02:48:03;;;;;;;11.03;2.70;;;6.80;99.90;;;;;;4977556;28;20516;-82
2022/01/28 02:50:36;;;;;;;6.60;1.87;;;6.80;99.90;;;;;;4972413;28;20468;-82
2022/01/28 02:53:09;;;;;;;5.73;1.73;;;6.70;99.90;;;;;;4966666;28;20473;-82
2022/01/28 02:55:40;;;;;;;5.00;1.70;;;6.70;99.90;;;;;;4966102;28;20563;-81
2022/01/28 03:00:46;;;;;;;7.80;2.03;;;6.70;99.90;;;;;;4968171;28;20484;-82
2022/01/28 03:03:19;;;;;;;7.70;2.17;;;6.60;99.90;;;;;;4970317;28;20470;-83
2022/01/28 03:05:46;;;;;;;2.50;1.43;;;6.60;99.90;;;;;;4971379;28;20465;-84
2022/01/28 03:08:14;;;;;;;5.90;2.10;;;6.60;99.90;;;;;;4974004;28;20581;-83
2022/01/28 03:13:58;;;;;;;8.13;2.70;;;6.60;99.90;;;;;;4978010;28;20460;-84
2022/01/28 03:16:25;;;;;;;10.30;2.10;;;6.60;99.90;;;;;;4976167;28;20506;-84
2022/01/28 03:19:00;;;;;;;7.63;2.57;;;6.60;99.90;;;;;;4974379;28;20528;-83
2022/01/28 03:23:54;;;;;;;6.97;1.93;;;6.60;99.90;;;;;;4979020;28;20476;-85
2022/01/28 03:26:25;;;;;;;7.07;2.70;;;6.60;99.90;;;;;;4976443;28;20598;-85
2022/01/28 03:28:56;;;;;;;9.20;2.33;;;6.60;99.90;;;;;;4976537;28;21015;-84
2022/01/28 03:31:23;;;;;;;5.97;2.07;;;6.60;99.90;;;;;;4982530;28;20506;-83
2022/01/28 03:33:50;;;;;;;7.17;2.00;;;6.60;99.90;;;;;;4983674;28;20459;-82
2022/01/28 03:36:17;;;;;;;7.13;1.80;;;6.60;99.90;;;;;;4979413;28;20579;-82
2022/01/28 03:38:47;;;;;;;5.47;1.83;;;6.60;99.90;;;;;;4977934;28;20570;-83
2022/01/28 03:41:17;;;;;;;7.23;1.90;;;6.60;99.90;;;;;;4987125;28;20479;-83
2022/01/28 03:43:47;;;;;;;7.23;2.20;;;6.60;99.90;;;;;;4987249;28;20487;-80
2022/01/28 03:46:15;;;;;;;5.13;1.97;;;6.60;99.90;;;;;;4996866;28;20457;-84
2022/01/28 03:48:43;;;;;;;6.47;2.53;;;6.60;99.90;;;;;;4989641;28;20467;-85
2022/01/28 03:51:10;;;;;;;5.93;2.10;;;6.60;99.90;;;;;;4993320;28;20467;-80
2022/01/28 03:53:38;;;;;;;14.20;2.63;;;6.60;99.90;;;;;;4986012;28;20567;-84
2022/01/28 03:56:05;;;;;;;9.60;2.10;;;6.60;99.90;;;;;;4989670;28;20471;-83
2022/01/28 03:58:32;;;;;;;7.13;2.27;;;6.60;99.90;;;;;;4983937;28;20542;-83
2022/01/28 04:00:59;;;;;;;9.03;1.73;;;6.60;99.90;;;;;;4983005;28;20522;-84
2022/01/28 04:14:07;;;;;;;12.67;3.57;;;6.60;99.90;;;;;;4986853;28;20462;-81
2022/01/28 04:19:21;;;;;;;8.53;2.50;;;6.50;99.90;;;;;;4992624;28;20956;-82
2022/01/28 04:21:49;;;;;;;4.60;2.07;;;6.50;99.90;;;;;;4985623;28;20483;-81
2022/01/28 04:24:16;;;;;;;14.77;2.47;;;6.50;99.90;;;;;;4986494;28;20452;-79
2022/01/28 04:26:43;;;;;;;7.83;2.17;;;6.50;99.90;;;;;;4988758;28;20477;-79
2022/01/28 04:29:11;;;;;;;13.70;2.40;;;6.50;99.90;;;;;;4978031;28;20498;-84
2022/01/28 04:31:46;;;;;;;14.13;2.33;;;6.50;99.90;;;;;;4977452;28;20464;-81
2022/01/28 04:34:15;;;;;;;6.43;2.10;;;6.50;99.90;;;;;;4978820;28;20479;-84
2022/01/28 04:50:33;;;;;;;8.27;2.30;;;6.50;99.90;;;;;;4977906;28;20467;-85
2022/01/28 04:58:31;;;;;;;5.67;1.97;;;6.50;99.90;;;;;;4981493;28;20487;-85
2022/01/28 05:01:39;;;;;;;5.63;2.53;;;6.60;99.90;;;;;;4985844;28;20476;-87
2022/01/28 05:03:59;;;;;;;5.80;2.00;;;6.50;99.90;;;;;;4984711;28;20460;-84
2022/01/28 05:07:35;;;;;;;5.13;1.70;;;6.60;99.90;;;;;;4972713;28;20484;-82
2022/01/28 05:12:29;;;;;;;9.60;2.37;;;6.50;99.90;;;;;;4973662;28;20465;-82
2022/01/28 05:28:40;;;;;;;6.20;2.07;;;6.50;99.90;;;;;;4968522;28;20558;-82
2022/01/28 05:31:08;;;;;;;6.13;2.00;;;6.50;99.90;;;;;;4978889;28;20472;-84
2022/01/28 05:33:35;;;;;;;3.27;1.60;;;6.40;99.90;;;;;;4976821;28;20464;-85
2022/01/28 05:36:02;;;;;;;9.33;1.93;;;6.40;99.90;;;;;;4975335;28;20532;-82
2022/01/28 05:38:30;;;;;;;16.23;3.00;;;6.40;99.90;;;;;;4976409;28;20853;-85
2022/01/28 05:40:57;;;;;;;4.10;1.73;;;6.50;99.90;;;;;;4983449;28;20480;-84
2022/01/28 05:43:23;;;;;;;4.87;1.90;;;6.40;99.90;;;;;;4985459;28;20486;-83
2022/01/28 05:45:50;;;;;;;10.17;2.40;;;6.50;99.90;;;;;;4977870;28;20551;-84
2022/01/28 05:48:20;;;;;;;6.20;2.07;;;6.40;99.90;;;;;;4975999;28;20543;-85
2022/01/28 05:50:47;;;;;;;8.23;1.63;;;6.50;99.90;;;;;;4975289;28;20565;-84
2022/01/28 05:53:15;;;;;;;7.97;1.97;;;6.50;99.90;;;;;;4974662;28;20494;-82
2022/01/28 05:55:42;;;;;;;10.07;2.73;;;6.40;99.90;;;;;;4974052;28;20507;-83
2022/01/28 05:58:09;;;;;;;4.73;2.10;;;6.40;99.90;;;;;;4978964;28;20544;-85
2022/01/28 06:00:36;;;;;;;4.70;2.03;;;6.40;99.90;;;;;;4978693;28;20484;-83
2022/01/28 06:03:48;;;;;;;;;;;;;;;;;;;;;
2022/01/28 06:09:21;;;;;;;8.53;2.80;;;6.20;99.90;;;;;;4952944;28;20461;-83
2022/01/28 06:11:56;;;;;;;12.73;4.83;;;6.60;99.90;;;;;;4979233;28;20516;-83
2022/01/28 06:14:26;;;;;;;8.90;2.60;;;6.30;99.90;;;;;;4979710;28;20538;-85
2022/01/28 06:16:55;;;;;;;8.23;2.90;;;6.30;99.90;;;;;;4977518;28;21043;-84
2022/01/28 06:19:34;;;;;;;14.37;3.43;;;6.30;99.90;;;;;;4970796;28;20461;-82
2022/01/28 06:22:12;;;;;;;7.70;2.00;;;6.30;99.90;;;;;;4980577;28;20488;-84
2022/01/28 06:24:54;;;;;;;9.10;2.80;;;6.30;99.90;;;;;;4965544;28;20450;-84
2022/01/28 06:27:30;;;;;;;9.73;2.40;;;6.20;99.90;;;;;;4978789;28;20495;-85
2022/01/28 06:30:22;;;;;;;;;;;;;;;;;;;;;
2022/01/28 06:33:06;;;;;;;7.53;2.87;;;6.30;99.90;;;;;;4967152;28;20468;-84
2022/01/28 06:35:43;;;;;;;8.70;2.70;;;6.20;99.90;;;;;;4981831;28;20479;-83
2022/01/28 06:38:11;;;;;;;10.40;2.60;;;6.20;99.90;;;;;;4976064;28;20472;-86
2022/01/28 06:40:46;;;;;;;15.53;3.30;;;6.60;99.90;;;;;;4972776;28;20460;-84
2022/01/28 06:43:16;;;;;;;9.13;2.80;;;6.10;99.90;;;;;;4967952;28;20451;-84
2022/01/28 06:45:50;;;;;;;7.47;2.33;;;6.20;99.90;;;;;;4980769;28;20767;-84
2022/01/28 06:48:19;;;;;;;9.17;3.20;;;6.30;99.90;;;;;;4981599;28;20581;-82
2022/01/28 06:51:14;;;;;;;9.47;2.60;;;6.00;99.90;;;;;;4983318;28;20457;-83
2022/01/28 06:53:55;;;;;;;9.10;2.77;;;6.20;99.90;;;;;;4970983;28;20478;-84
2022/01/28 06:56:23;;;;;;;10.97;3.30;;;6.20;99.90;;;;;;4993250;28;20476;-84
2022/01/28 06:58:50;;;;;;;8.63;3.13;;;6.20;99.90;;;;;;4977513;28;20467;-85
2022/01/28 07:01:21;;;;;;;8.40;2.70;;;6.20;99.90;;;;;;4974766;28;20546;-84
2022/01/28 07:03:48;;;;;;;8.33;3.77;;;6.20;99.90;;;;;;4979706;28;20507;-84
2022/01/28 07:06:16;;;;;;;7.63;3.40;;;6.20;99.90;;;;;;4975541;28;20526;-84
2022/01/28 07:08:42;;;;;;;9.70;3.33;;;6.20;99.90;;;;;;4992014;28;20539;-82
2022/01/28 07:11:10;;;;;;;9.40;2.70;;;6.20;99.90;;;;;;4968905;28;20471;-86
2022/01/28 07:13:37;;;;;;;6.57;3.37;;;6.20;99.90;;;;;;4977940;28;20467;-83
2022/01/28 07:16:05;;;;;;;9.77;3.53;;;6.20;99.90;;;;;;4975527;28;20475;-85
2022/01/28 07:18:37;;;;;;;7.83;3.80;;;6.10;99.90;;;;;;4975350;28;20464;-83
2022/01/28 07:21:13;;;;;;;5.87;2.90;;;6.50;99.90;;;;;;4977858;28;20867;-82
2022/01/28 07:23:45;;;;;;;12.13;3.57;;;6.10;99.90;;;;;;4977178;28;20523;-85
2022/01/28 07:26:15;;;;;;;7.13;2.60;;;6.10;99.90;;;;;;4978196;28;20852;-84
2022/01/28 07:28:56;;;;;;;13.03;4.10;;;6.20;99.90;;;;;;4962359;28;20538;-83
2022/01/28 07:31:27;;;;;;;9.43;3.70;;;6.20;99.90;;;;;;4979214;28;20455;-82
2022/01/28 07:33:57;;;;;;;9.83;3.53;;;6.30;99.90;;;;;;4980320;28;20459;-84
2022/01/28 07:36:26;;;;;;;8.17;3.33;;;6.20;99.90;;;;;;4973727;28;20519;-83
2022/01/28 07:38:57;;;;;;;9.73;3.80;;;6.30;99.90;;;;;;4969512;28;20974;-84
2022/01/28 07:41:27;;;;;;;9.20;3.07;;;6.50;99.90;;;;;;4969981;28;20496;-85
2022/01/28 07:44:02;;;;;;;5.50;3.00;;;6.30;99.90;;;;;;4967268;28;20456;-86
2022/01/28 07:46:32;;;;;;;10.90;2.60;;;6.40;99.90;;;;;;4977804;28;21195;-83
2022/01/28 07:49:05;;;;;;;8.50;3.37;;;6.40;99.90;;;;;;4969196;28;20499;-84
2022/01/28 07:51:44;;;;;;;10.40;3.33;;;6.70;99.90;;;;;;4969010;28;20569;-85
2022/01/28 07:54:13;;;;;;;6.97;2.93;;;6.40;99.90;;;;;;4994725;28;20468;-84
2022/01/28 07:56:42;;;;;;;11.90;2.67;;;6.40;99.90;;;;;;4978317;28;20539;-84
2022/01/28 07:59:13;;;;;;;12.50;2.90;;;6.30;99.90;;;;;;4979041;28;20493;-82
2022/01/28 08:01:39;;;;;;;10.27;3.13;;;6.40;99.90;;;;;;4977010;28;20963;-84
2022/01/28 08:04:06;;;;;;;10.37;4.00;;;6.50;99.90;;;;;;4979448;28;20448;-84
2022/01/28 08:06:43;;;;;;;8.00;2.90;;;6.40;99.90;;;;;;4978594;28;20480;-83
2022/01/28 08:09:18;;;;;;;7.70;2.60;;;6.50;99.90;;;;;;4976261;28;20463;-85
2022/01/28 08:11:48;;;;;;;8.63;2.93;;;6.50;99.90;;;;;;4980481;28;20462;-84
2022/01/28 08:14:20;;;;;;;5.30;2.23;;;6.60;99.90;;;;;;4993296;28;20509;-85
2022/01/28 08:16:47;;;;;;;10.43;2.83;;;6.60;99.90;;;;;;4996504;28;20478;-87
2022/01/28 08:19:20;;;;;;;5.53;2.63;;;6.60;99.90;;;;;;4989312;28;21064;-83
2022/01/28 08:21:57;;;;;;;9.10;3.43;;;6.70;99.90;;;;;;4992272;28;20491;-84
2022/01/28 08:24:25;;;;;;;6.77;2.60;;;7.10;99.90;;;;;;4994511;28;20452;-87
2022/01/28 08:27:03;;;;;;;8.10;2.97;;;6.70;99.90;;;;;;4985684;28;20570;-83
2022/01/28 08:29:35;;;;;;;6.87;2.60;;;6.70;99.90;;;;;;4972398;28;20464;-85
2022/01/28 08:32:10;;;;;;;7.80;2.47;;;6.70;99.90;;;;;;4975846;28;20483;-85
2022/01/28 08:34:37;;;;;;;7.67;3.10;;;6.80;99.90;;;;;;4982225;28;20443;-84
2022/01/28 08:37:06;;;;;;;9.80;4.07;;;6.90;99.90;;;;;;4971870;28;20504;-86
2022/01/28 08:39:35;;;;;;;7.77;2.97;;;6.80;99.90;;;;;;4977122;28;20456;-83
2022/01/28 08:42:10;;;;;;;11.10;2.97;;;6.90;99.90;;;;;;4977870;28;20480;-84
2022/01/28 08:44:51;;;;;;;7.57;2.60;;;7.30;99.90;;;;;;4977794;28;20468;-83
2022/01/28 08:47:23;;;;;;;8.90;2.67;;;7.10;99.90;;;;;;4973442;28;20489;-83
2022/01/28 08:49:54;;;;;;;8.50;2.60;;;7.20;99.90;;;;;;4976520;28;20489;-83
2022/01/28 08:52:33;;;;;;;10.80;3.50;;;7.20;99.90;;;;;;4972481;28;20464;-82
2022/01/28 08:55:06;;;;;;;11.63;3.03;;;7.20;99.90;;;;;;4973560;28;20477;-83
2022/01/28 08:57:52;;;;;;;12.77;5.13;;;7.40;99.90;;;;;;4971961;28;20482;-84
2022/01/28 09:00:28;;;;;;;11.53;2.77;;;7.40;99.90;;;;;;4970991;28;20475;-83
2022/01/28 09:03:14;;;;;;;10.30;3.30;;;7.50;99.90;;;;;;4970237;28;20513;-82
2022/01/28 09:05:49;;;;;;;7.30;2.77;;;7.60;99.90;;;;;;4971517;28;20448;-82
2022/01/28 09:08:23;;;;;;;12.37;2.87;;;7.40;99.90;;;;;;4976181;28;20491;-82
2022/01/28 09:13:55;;;;;;;10.70;3.30;;;7.70;99.90;;;;;;4980665;28;20988;-82
2022/01/28 09:16:44;;;;;;;8.20;3.07;;;7.80;99.90;;;;;;4972302;28;20480;-82
2022/01/28 09:19:14;;;;;;;8.20;2.73;;;7.80;99.90;;;;;;4974274;28;20464;-83
2022/01/28 09:21:44;;;;;;;5.17;3.00;;;7.70;99.90;;;;;;4978037;28;20511;-82
2022/01/28 09:24:13;;;;;;;8.10;3.70;;;7.80;99.90;;;;;;4968486;28;20544;-83
2022/01/28 09:26:51;;;;;;;8.17;2.60;;;7.70;99.90;;;;;;4974309;28;20476;-82
2022/01/28 09:29:33;;;;;;;9.23;3.20;;;7.70;99.90;;;;;;4969141;28;20457;-83
2022/01/28 09:32:09;;;;;;;5.77;2.83;;;7.50;99.90;;;;;;4974105;28;20468;-83
2022/01/28 09:34:39;;;;;;;12.97;3.37;;;8.00;99.90;;;;;;4970296;28;20445;-81
2022/01/28 09:37:17;;;;;;;8.63;3.17;;;7.70;99.90;;;;;;4983198;28;20591;-83
2022/01/28 09:39:50;;;;;;;7.50;3.30;;;7.70;99.90;;;;;;4980858;28;20519;-82
2022/01/28 09:42:45;;;;;;;5.83;3.60;;;7.80;99.90;;;;;;4978744;28;20491;-83
2022/01/28 09:45:29;;;;;;;8.73;3.67;;;8.10;99.90;;;;;;4976682;28;20457;-83
2022/01/28 09:48:00;;;;;;;9.03;4.00;;;7.70;99.90;;;;;;4975083;28;20541;-82
2022/01/28 09:50:35;;;;;;;10.73;4.87;;;7.70;99.90;;;;;;4968449;28;20958;-82
2022/01/28 09:53:04;;;;;;;9.40;4.20;;;7.90;99.90;;;;;;4972258;28;20471;-82
2022/01/28 09:55:42;;;;;;;7.90;3.60;;;8.20;99.90;;;;;;4976273;28;20478;-83
2022/01/28 09:58:15;;;;;;;9.77;4.60;;;8.70;99.90;;;;;;4967372;28;20499;-84
2022/01/28 10:01:13;;;;;;;8.87;4.03;;;8.90;99.90;;;;;;4946415;28;20895;-83
2022/01/28 10:07:21;;;;;;;8.10;4.70;;;10.10;99.90;;;;;;4941327;28;20476;-83
2022/01/28 10:10:11;;;;;;;8.60;4.03;;;10.70;98.20;;;;;;4964995;28;20472;-83
2022/01/28 10:14:18;;;;;;;8.60;4.20;;;10.20;98.50;;;;;;4956847;28;20484;-82
2022/01/28 10:17:28;;;;;;;8.67;5.03;;;10.00;99.80;;;;;;4959605;28;21643;-85
2022/01/28 10:20:39;;;;;;;;;;;;;;;;;;;;;
2022/01/28 10:23:26;;;;;;;10.63;4.30;;;10.80;97.80;;;;;;4955204;28;20488;-83
2022/01/28 10:26:35;;;;;;;17.07;5.57;;;10.10;98.20;;;;;;4969495;28;20488;-84
2022/01/28 10:29:32;;;;;;;20.60;4.67;;;9.70;99.90;;;;;;4975583;28;20532;-81
2022/01/28 10:32:37;;;;;;;6.27;4.37;;;9.50;99.90;;;;;;4969684;28;20460;-83
2022/01/28 10:39:19;;;;;;;12.40;4.93;;;9.10;99.90;;;;;;4972468;28;20474;-85
2022/01/28 10:42:37;;;;;;;10.83;4.67;;;9.00;99.90;;;;;;4975933;28;20595;-83
2022/01/28 10:45:33;;;;;;;12.13;5.20;;;8.90;99.90;;;;;;4954570;28;20464;-84
2022/01/28 10:48:45;;;;;;;13.77;3.90;;;9.00;99.90;;;;;;4965712;28;21009;-84
2022/01/28 10:51:37;;;;;;;13.43;4.30;;;9.10;99.90;;;;;;4964488;28;20501;-83
2022/01/28 10:54:45;;;;;;;9.80;5.07;;;9.00;99.90;;;;;;4962487;28;20459;-84
2022/01/28 10:57:29;;;;;;;11.30;4.60;;;9.10;99.90;;;;;;4960144;28;20495;-84
2022/01/28 11:00:22;;;;;;;7.57;3.00;;;9.40;99.90;;;;;;4960674;28;20525;-86
2022/01/28 11:03:01;;;;;;;11.63;4.07;;;9.40;99.90;;;;;;4966979;28;20481;-83
2022/01/28 11:05:58;;;;;;;7.40;3.50;;;9.30;99.90;;;;;;4962922;28;20461;-83
2022/01/28 11:08:34;;;;;;;9.43;4.30;;;9.40;99.90;;;;;;5016445;23;20521;-84
2022/01/28 11:11:33;;;;;;;10.20;4.00;;;9.30;99.80;;;;;;4993968;28;20463;-83
2022/01/28 11:14:10;;;;;;;13.23;4.10;;;9.20;99.70;;;;;;4992872;28;20463;-83
2022/01/28 11:16:48;;;;;;;12.63;3.87;;;9.20;99.80;;;;;;4984264;28;20488;-84
2022/01/28 11:19:46;;;;;;;8.67;4.13;;;9.30;99.80;;;;;;4948207;28;20555;-85
2022/01/28 11:22:56;;;;;;;10.93;3.57;;;9.20;99.60;;;;;;4975175;28;20511;-85
2022/01/28 11:26:04;;;;;;;8.90;3.47;;;9.20;99.30;;;;;;4979768;28;20464;-83
2022/01/28 11:29:02;;;;;;;10.20;3.40;;;9.10;99.10;;;;;;4977593;28;20543;-84
2022/01/28 11:32:33;;;;;;;;;;;;;;;;;;;;;
2022/01/28 11:35:13;;;;;;;14.03;3.10;;;9.20;99.10;;;;;;4973358;28;20460;-84
2022/01/28 11:38:26;;;;;;;10.70;2.90;;;9.50;99.30;;;;;;4966293;28;20475;-83
2022/01/28 11:41:13;;;;;;;8.30;3.93;;;9.70;96.80;;;;;;4967796;28;20452;-85
2022/01/28 11:44:01;;;;;;;8.20;2.30;;;9.60;96.60;;;;;;4969974;28;20482;-85
2022/01/28 11:47:06;;;;;;;8.50;2.30;;;9.30;96.60;;;;;;4983005;28;20523;-84
2022/01/28 11:50:08;;;;;;;11.00;3.90;;;9.10;96.40;;;;;;4972218;28;20480;-84
2022/01/28 11:53:21;;;;;;;9.23;2.70;;;9.00;96.30;;;;;;4971753;28;20540;-84
2022/01/28 11:56:16;;;;;;;7.13;2.23;;;9.00;96.20;;;;;;4929148;28;20466;-85
2022/01/28 11:59:11;;;;;;;11.47;3.00;;;9.20;95.60;;;;;;4972811;28;20470;-83
2022/01/28 12:02:26;;;;;;;7.60;2.83;;;9.30;94.80;;;;;;4974907;28;20456;-83
2022/01/28 12:05:56;;;;;;;9.47;2.37;;;9.20;95.00;;;;;;4981969;28;20460;-82
2022/01/28 12:08:56;;;;;;;7.23;2.20;;;9.10;95.40;;;;;;4961015;28;20554;-84
2022/01/28 12:12:05;;;;;;;17.17;3.20;;;9.00;95.90;;;;;;4977801;28;20463;-82
2022/01/28 12:15:09;;;;;;;7.73;3.40;;;8.90;96.20;;;;;;4975424;28;20469;-84
2022/01/28 12:17:52;;;;;;;5.13;2.43;;;8.90;96.90;;;;;;4986544;28;20465;-82
2022/01/28 12:21:14;;;;;;;5.60;2.73;;;8.80;97.30;;;;;;4981937;28;20484;-83
2022/01/28 12:24:19;;;;;;;7.57;2.60;;;8.80;97.30;;;;;;4995687;28;20480;-80
2022/01/28 12:27:32;;;;;;;8.27;2.13;;;8.90;97.00;;;;;;4987751;28;20503;-82
2022/01/28 12:30:35;;;;;;;20.03;2.90;;;9.20;96.70;;;;;;4985245;28;20450;-85
2022/01/28 12:33:33;;;;;;;10.83;3.07;;;9.00;96.70;;;;;;4978940;28;20478;-82
2022/01/28 12:36:15;;;;;;;5.33;2.30;;;9.00;96.50;;;;;;4971086;28;20471;-82
2022/01/28 12:42:03;;;;;;;8.57;2.40;;;9.10;96.40;;;;;;4977776;28;20464;-80
2022/01/28 12:44:55;;;;;;;5.87;2.60;;;9.00;96.00;;;;;;4973649;28;20449;-82
2022/01/28 12:47:51;;;;;;;4.27;2.00;;;8.90;96.00;;;;;;4971749;28;20559;-83
2022/01/28 12:50:54;;;;;;;9.17;1.93;;;8.90;95.80;;;;;;4970240;28;20465;-83
2022/01/28 12:53:47;;;;;;;5.50;2.10;;;8.80;95.70;;;;;;4973927;28;20465;-83
2022/01/28 12:59:53;;;;;;;5.53;1.63;;;8.80;95.00;;;;;;4980276;28;20453;-84
2022/01/28 13:02:36;;;;;;;7.17;2.00;;;8.70;94.80;;;;;;4979396;28;20511;-84
2022/01/28 13:05:32;;;;;;;5.57;1.70;;;8.80;94.50;;;;;;4978967;28;20452;-82
2022/01/28 13:08:49;;;;;;;7.90;1.50;;;8.70;94.40;;;;;;4954027;28;21038;-82
2022/01/28 13:11:28;;;;;;;14.33;2.37;;;8.60;94.40;;;;;;4968459;29;20441;-84
2022/01/28 13:14:29;;;;;;;6.13;1.57;;;8.60;94.80;;;;;;4958805;29;20473;-85
2022/01/28 13:17:24;;;;;;;6.10;2.17;;;8.60;95.30;;;;;;4966428;28;20481;-83
2022/01/28 13:20:21;;;;;;;5.73;1.80;;;8.60;95.40;;;;;;4939961;29;20918;-84
2022/01/28 13:23:45;;;;;;;5.43;1.90;;;8.70;95.40;;;;;;4943491;28;20528;-84
2022/01/28 13:26:30;;;;;;;4.30;1.60;;;8.70;95.20;;;;;;4911631;29;20492;-84
2022/01/28 13:29:34;;;;;;;8.00;2.30;;;8.80;95.40;;;;;;4922869;29;20949;-84
2022/01/28 13:33:11;;;;;;;9.73;2.80;;;8.80;95.40;;;;;;4908478;29;20460;-83
2022/01/28 13:36:23;;;;;;;3.80;2.10;;;8.90;95.50;;;;;;4944978;29;20600;-83
2022/01/28 13:39:27;;;;;;;5.97;2.10;;;8.90;95.80;;;;;;4968300;28;20483;-84
2022/01/28 13:42:23;;;;;;;4.47;2.20;;;9.00;95.80;;;;;;4980262;28;20488;-82
2022/01/28 13:45:51;;;;;;;;;;;;;;;;;;;;;
2022/01/28 13:49:08;;;;;;;8.70;5.20;;;9.10;96.10;;;;;;4975474;28;20459;-81
2022/01/28 13:52:46;;;;;;;12.70;2.80;;;9.20;95.40;;;;;;4954670;28;20532;-82
2022/01/28 13:55:53;;;;;;;9.53;3.60;;;9.20;95.10;;;;;;4942104;28;20464;-82
2022/01/28 13:58:58;;;;;;;7.63;2.43;;;9.40;95.60;;;;;;4979136;23;21057;-84
2022/01/28 14:02:19;;;;;;;5.47;2.80;;;9.20;95.40;;;;;;4975395;28;20449;-84
2022/01/28 14:05:31;;;;;;;8.77;2.80;;;9.30;95.40;;;;;;4976465;28;20464;-82
2022/01/28 14:08:47;;;;;;;8.30;2.50;;;9.30;95.30;;;;;;4972474;28;20828;-85
2022/01/28 14:11:48;;;;;;;8.20;2.60;;;9.10;95.50;;;;;;4971258;28;20480;-82
2022/01/28 14:15:09;;;;;;;5.93;2.53;;;9.20;95.90;;;;;;4964875;28;20461;-84
2022/01/28 14:18:02;;;;;;;5.50;2.10;;;9.30;96.00;;;;;;4970886;28;20866;-83
2022/01/28 14:21:09;;;;;;;10.17;3.40;;;9.70;95.40;;;;;;4972393;28;20888;-83
2022/01/28 14:23:56;;;;;;;3.93;2.83;;;9.60;95.50;;;;;;4964395;28;20478;-84
2022/01/28 14:26:54;;;;;;;;;;;;;;;;;;;;;
2022/01/28 14:30:05;;;;;;;8.90;2.73;;;9.50;95.30;;;;;;4969189;28;20560;-81
2022/01/28 14:33:15;;;;;;;4.93;3.03;;;9.50;95.30;;;;;;4967217;28;20496;-83
2022/01/28 14:36:25;;;;;;;4.10;3.13;;;9.30;95.90;;;;;;4974602;28;20463;-86
2022/01/28 14:39:23;;;;;;;9.83;2.93;;;9.30;95.90;;;;;;4957964;28;20898;-83
2022/01/28 14:42:31;;;;;;;10.07;3.10;;;9.20;96.00;;;;;;4957295;28;20487;-81
2022/01/28 14:45:29;;;;;;;7.23;3.13;;;9.20;96.20;;;;;;4959732;28;20546;-83
2022/01/28 14:52:01;;;;;;;5.57;3.10;;;9.30;96.60;;;;;;4961161;28;20938;-82
2022/01/28 14:55:14;;;;;;;5.90;4.00;;;9.40;96.60;;;;;;4965528;28;20443;-85
2022/01/28 14:58:33;;;;;;;13.57;4.33;;;9.40;96.50;;;;;;4964729;28;20505;-83
2022/01/28 15:01:48;;;;;;;7.30;3.60;;;9.30;96.40;;;;;;4958831;28;20468;-83
2022/01/28 15:05:40;;;;;;;7.40;3.93;;;9.30;96.90;;;;;;4968946;28;20485;-82
2022/01/28 15:08:40;;;;;;;7.67;3.57;;;9.20;96.70;;;;;;4969967;28;20510;-83
2022/01/28 15:14:28;;;;;;;7.53;4.33;;;9.10;97.30;;;;;;4977830;28;20485;-82
2022/01/28 15:17:26;;;;;;;6.87;4.17;;;9.10;97.60;;;;;;4954355;28;20543;-84
2022/01/28 15:20:31;;;;;;;9.33;5.00;;;9.20;97.50;;;;;;4941203;28;20476;-81
2022/01/28 15:23:17;;;;;;;8.40;4.33;;;9.10;97.80;;;;;;4967724;28;20567;-84
2022/01/28 15:26:31;;;;;;;6.97;3.60;;;9.00;97.80;;;;;;4964638;28;20560;-83
2022/01/28 15:35:58;;;;;;;3.90;3.50;;;8.90;98.30;;;;;;4966115;28;20464;-83
2022/01/28 15:39:35;;;;;;;;;;;;;;;;;;;;;
2022/01/28 15:42:21;;;;;;;11.10;3.97;;;8.90;98.30;;;;;;4955215;28;20471;-83
2022/01/28 15:49:02;;;;;;;7.10;3.77;;;8.80;98.70;;;;;;4971600;28;20499;-82
2022/01/28 15:51:55;;;;;;;6.40;3.70;;;8.80;98.70;;;;;;4979042;28;20461;-85
2022/01/28 15:55:19;;;;;;;6.07;3.10;;;8.80;98.80;;;;;;4973673;28;20478;-81
2022/01/28 15:58:03;;;;;;;6.67;2.93;;;8.80;98.80;;;;;;4969199;28;20492;-83
2022/01/28 16:01:13;;;;;;;7.00;3.50;;;8.80;98.80;;;;;;4943725;28;20543;-83
2022/01/28 16:07:30;;;;;;;5.83;3.50;;;8.90;99.00;;;;;;4971698;28;20990;-82
2022/01/28 16:14:11;;;;;;;;;;;;;;;;;;;;;
2022/01/28 16:20:29;;;;;;;5.90;3.90;;;8.70;99.80;;;;;;4932232;29;20477;-83
2022/01/28 16:26:39;;;;;;;;;;;;;;;;;;;;;
2022/01/28 16:29:51;;;;;;;12.57;5.83;;;8.70;99.90;;;;;;4937861;29;20482;-83
2022/01/28 16:33:09;;;;;;;15.63;7.70;;;8.60;99.90;;;;;;4922593;29;20562;-85
2022/01/28 16:36:05;;;;;;;12.80;6.70;;;8.60;99.90;;;;;;4946581;28;20486;-84
2022/01/28 16:39:02;;;;;;;11.07;5.70;;;8.60;99.90;;;;;;4875454;29;20466;-84
2022/01/28 16:48:52;;;;;;;10.60;6.80;;;8.60;99.90;;;;;;4982118;23;20495;-85
2022/01/28 16:52:00;;;;;;;17.17;7.67;;;8.60;99.90;;;;;;4952572;28;20453;-83
2022/01/28 17:07:49;;;;;;;17.23;10.07;;;8.60;99.90;;;;;;3379702;26;20516;-84
2022/01/28 17:18:26;;;;;;;;;;;;;;;;;;;;;
2022/01/28 17:21:44;;;;;;;;;;;;;;;;;;;;;
2022/01/28 17:32:57;;;;;;;15.13;12.10;;;8.20;99.90;;;;;;4951500;29;20422;-82
2022/01/28 17:43:39;;;;;;;16.20;12.00;;;8.30;99.90;;;;;;4894775;29;20723;-86
2022/01/28 17:51:08;;;;;;;17.80;12.30;;;7.80;99.90;;;;;;4933189;29;20532;-84